createdAt,value
2018-09-13T00:02:22.905Z,14.73
2018-09-13T00:04:55.764Z,14.69
2018-09-13T00:07:28.304Z,14.69
2018-09-13T00:10:02.400Z,14.68
2018-09-13T00:12:34.894Z,14.68
2018-09-13T00:15:07.845Z,14.66
2018-09-13T00:17:40.363Z,14.67
2018-09-13T00:20:12.990Z,14.65
2018-09-13T00:22:45.901Z,14.63
2018-09-13T00:25:19.340Z,14.64
2018-09-13T00:27:51.861Z,14.62
2018-09-13T00:30:24.892Z,14.61
2018-09-13T00:32:57.387Z,14.59
2018-09-13T00:35:30.188Z,14.58
2018-09-13T00:38:03.224Z,14.56
2018-09-13T00:40:35.813Z,14.56
2018-09-13T00:43:08.308Z,14.55
2018-09-13T00:45:41.131Z,14.54
2018-09-13T00:48:13.733Z,14.54
2018-09-13T00:50:46.338Z,14.59
2018-09-13T00:53:19.491Z,14.56
2018-09-13T00:55:52.111Z,14.54
2018-09-13T00:58:24.709Z,14.52
2018-09-13T01:01:00.251Z,14.51
2018-09-13T01:03:32.868Z,14.51
2018-09-13T01:06:05.590Z,14.50
2018-09-13T01:08:39.637Z,14.50
2018-09-13T01:11:12.292Z,14.50
2018-09-13T01:13:44.836Z,14.55
2018-09-13T01:16:17.836Z,14.51
2018-09-13T01:18:51.668Z,14.49
2018-09-13T01:21:26.772Z,14.48
2018-09-13T01:24:00.856Z,14.45
2018-09-13T01:26:33.464Z,14.44
2018-09-13T01:29:06.072Z,14.41
2018-09-13T01:31:40.033Z,14.38
2018-09-13T01:34:13.501Z,14.38
2018-09-13T01:36:46.264Z,14.41
2018-09-13T01:39:19.196Z,14.37
2018-09-13T01:41:51.840Z,14.34
2018-09-13T01:44:24.380Z,14.32
2018-09-13T01:46:57.572Z,14.30
2018-09-13T01:49:30.160Z,14.29
2018-09-13T01:52:03.614Z,14.28
2018-09-13T01:54:37.262Z,14.26
2018-09-13T01:57:09.844Z,14.22
2018-09-13T01:59:42.739Z,14.21
2018-09-13T02:02:15.690Z,14.21
2018-09-13T02:04:48.289Z,14.24
2018-09-13T02:07:22.904Z,14.28
2018-09-13T02:09:56.751Z,14.27
2018-09-13T02:12:29.249Z,14.24
2018-09-13T02:15:03.465Z,14.23
2018-09-13T02:17:36.450Z,14.13
2018-09-13T02:20:09.216Z,14.05
2018-09-13T02:22:41.817Z,14.01
2018-09-13T02:25:14.781Z,13.97
2018-09-13T02:27:47.355Z,13.95
2018-09-13T02:30:19.857Z,13.96
2018-09-13T02:32:52.831Z,13.95
2018-09-13T02:35:25.473Z,13.95
2018-09-13T02:37:57.988Z,13.94
2018-09-13T02:40:30.818Z,13.94
2018-09-13T02:43:03.372Z,13.92
2018-09-13T02:45:35.956Z,13.91
2018-09-13T02:48:08.847Z,13.87
2018-09-13T02:50:41.261Z,13.85
2018-09-13T02:53:13.813Z,13.85
2018-09-13T02:55:46.644Z,13.80
2018-09-13T02:58:19.299Z,13.80
2018-09-13T03:00:51.617Z,13.77
2018-09-13T03:03:24.480Z,13.78
2018-09-13T03:05:57.112Z,13.78
2018-09-13T03:08:29.692Z,13.75
2018-09-13T03:11:02.885Z,13.73
2018-09-13T03:13:35.296Z,13.72
2018-09-13T03:16:08.320Z,13.74
2018-09-13T03:18:43.066Z,13.76
2018-09-13T03:21:15.376Z,13.77
2018-09-13T03:23:48.568Z,13.82
2018-09-13T03:26:23.288Z,13.81
2018-09-13T03:28:56.650Z,13.86
2018-09-13T03:31:29.020Z,13.84
2018-09-13T03:34:02.232Z,13.82
2018-09-13T03:36:35.104Z,13.89
2018-09-13T03:39:10.683Z,13.94
2018-09-13T03:41:43.301Z,13.97
2018-09-13T03:44:15.650Z,13.91
2018-09-13T03:46:47.996Z,13.88
2018-09-13T03:49:20.612Z,13.86
2018-09-13T03:51:52.972Z,13.87
2018-09-13T03:54:25.312Z,13.86
2018-09-13T03:56:58.148Z,13.85
2018-09-13T03:59:30.868Z,13.84
2018-09-13T04:02:03.264Z,13.83
2018-09-13T04:04:35.640Z,13.82
2018-09-13T04:07:13.748Z,13.80
2018-09-13T04:09:46.173Z,13.78
2018-09-13T04:12:18.530Z,13.78
2018-09-13T04:14:51.327Z,13.75
2018-09-13T04:17:23.708Z,13.72
2018-09-13T04:19:56.087Z,13.72
2018-09-13T04:22:29.945Z,13.71
2018-09-13T04:25:03.528Z,13.71
2018-09-13T04:27:35.915Z,13.70
2018-09-13T04:30:08.689Z,13.69
2018-09-13T04:32:41.589Z,13.70
2018-09-13T04:35:14.942Z,13.69
2018-09-13T04:37:47.612Z,13.69
2018-09-13T04:40:19.994Z,13.71
2018-09-13T04:42:53.820Z,13.70
2018-09-13T04:45:26.378Z,13.72
2018-09-13T04:47:58.947Z,13.71
2018-09-13T04:50:31.712Z,13.72
2018-09-13T04:53:04.167Z,13.71
2018-09-13T04:55:36.564Z,13.72
2018-09-13T04:58:09.274Z,13.74
2018-09-13T05:00:42.424Z,13.74
2018-09-13T05:03:15.961Z,13.73
2018-09-13T05:05:50.084Z,13.74
2018-09-13T05:08:23.134Z,13.73
2018-09-13T05:10:55.576Z,13.72
2018-09-13T05:13:28.388Z,13.71
2018-09-13T05:16:00.770Z,13.71
2018-09-13T05:18:34.017Z,13.72
2018-09-13T05:21:06.777Z,13.71
2018-09-13T05:23:39.881Z,13.74
2018-09-13T05:26:12.233Z,13.73
2018-09-13T05:28:45.919Z,13.73
2018-09-13T05:31:18.837Z,13.70
2018-09-13T05:33:51.236Z,13.69
2018-09-13T05:36:23.687Z,13.68
2018-09-13T05:38:56.047Z,13.71
2018-09-13T05:41:28.407Z,13.68
2018-09-13T05:44:01.216Z,13.66
2018-09-13T05:46:35.597Z,13.66
2018-09-13T05:49:09.845Z,13.65
2018-09-13T05:51:44.611Z,13.66
2018-09-13T05:54:17.763Z,13.64
2018-09-13T05:56:50.507Z,13.65
2018-09-13T05:59:22.840Z,13.63
2018-09-13T06:01:56.630Z,13.63
2018-09-13T06:04:30.151Z,13.62
2018-09-13T06:07:04.841Z,13.62
2018-09-13T06:09:37.132Z,13.62
2018-09-13T06:12:09.509Z,13.63
2018-09-13T06:14:43.443Z,13.63
2018-09-13T06:17:16.653Z,13.60
2018-09-13T06:19:50.441Z,13.61
2018-09-13T06:22:24.276Z,13.62
2018-09-13T06:24:57.062Z,13.70
2018-09-13T06:27:29.579Z,13.68
2018-09-13T06:30:03.315Z,13.68
2018-09-13T06:32:36.045Z,13.68
2018-09-13T06:35:09.314Z,13.69
2018-09-13T06:37:42.507Z,13.74
2018-09-13T06:40:17.572Z,13.71
2018-09-13T06:42:49.975Z,13.72
2018-09-13T06:45:23.373Z,13.74
2018-09-13T06:47:56.314Z,13.73
2018-09-13T06:50:28.693Z,13.71
2018-09-13T06:53:01.136Z,13.70
2018-09-13T06:55:33.768Z,13.72
2018-09-13T06:58:06.159Z,13.72
2018-09-13T07:00:38.625Z,13.73
2018-09-13T07:03:15.538Z,13.75
2018-09-13T07:05:50.028Z,13.77
2018-09-13T07:08:23.220Z,13.79
2018-09-13T07:10:56.120Z,13.84
2018-09-13T07:13:28.594Z,13.89
2018-09-13T07:16:01.049Z,13.98
2018-09-13T07:18:34.943Z,14.06
2018-09-13T07:21:07.921Z,14.11
2018-09-13T07:23:40.494Z,14.23
2018-09-13T07:26:13.267Z,14.25
2018-09-13T07:28:45.767Z,14.26
2018-09-13T07:31:18.071Z,14.26
2018-09-13T07:33:50.925Z,14.29
2018-09-13T07:36:23.297Z,14.31
2018-09-13T07:38:58.632Z,14.32
2018-09-13T07:41:32.758Z,14.36
2018-09-13T07:44:07.535Z,14.37
2018-09-13T07:46:41.038Z,14.39
2018-09-13T07:49:15.212Z,14.41
2018-09-13T07:51:47.397Z,14.44
2018-09-13T07:54:19.833Z,14.49
2018-09-13T07:56:53.881Z,14.50
2018-09-13T07:59:26.768Z,14.53
2018-09-13T08:02:00.547Z,14.57
2018-09-13T08:04:33.544Z,14.65
2018-09-13T08:07:06.308Z,14.77
2018-09-13T08:09:38.749Z,14.90
2018-09-13T08:12:12.667Z,14.89
2018-09-13T08:14:53.656Z,14.98
2018-09-13T08:17:30.395Z,14.95
2018-09-13T08:20:05.340Z,14.92
2018-09-13T08:22:40.641Z,14.92
2018-09-13T08:25:15.148Z,14.92
2018-09-13T08:27:48.943Z,14.93
2018-09-13T08:30:22.723Z,14.99
2018-09-13T08:32:55.659Z,15.00
2018-09-13T08:35:28.688Z,15.03
2018-09-13T08:38:01.252Z,15.03
2018-09-13T08:40:33.729Z,15.03
2018-09-13T08:43:08.615Z,15.12
2018-09-13T08:45:42.761Z,15.23
2018-09-13T08:48:16.766Z,15.37
2018-09-13T08:50:54.309Z,15.46
2018-09-13T08:53:28.048Z,15.47
2018-09-13T08:56:02.280Z,15.68
2018-09-13T08:58:34.603Z,15.75
2018-09-13T09:01:16.009Z,15.77
2018-09-13T09:03:48.323Z,15.75
2018-09-13T09:06:20.740Z,15.66
2018-09-13T09:08:53.964Z,15.59
2018-09-13T09:11:28.420Z,15.54
2018-09-13T09:14:01.758Z,15.49
2018-09-13T09:16:35.809Z,15.52
2018-09-13T09:19:08.803Z,15.53
2018-09-13T09:21:42.097Z,15.54
2018-09-13T09:24:16.466Z,15.55
2018-09-13T09:26:48.879Z,15.56
2018-09-13T09:29:23.207Z,15.57
2018-09-13T09:31:57.992Z,15.68
2018-09-13T09:34:30.281Z,15.78
2018-09-13T09:37:02.757Z,15.86
2018-09-13T09:39:35.557Z,15.90
2018-09-13T09:42:10.456Z,15.86
2018-09-13T09:44:43.339Z,15.76
2018-09-13T09:47:16.162Z,15.64
2018-09-13T09:49:49.808Z,15.63
2018-09-13T09:52:24.435Z,15.68
2018-09-13T09:54:58.186Z,15.75
2018-09-13T09:57:30.632Z,15.73
2018-09-13T10:00:06.150Z,15.76
2018-09-13T10:02:39.760Z,15.75
2018-09-13T10:05:12.044Z,15.77
2018-09-13T10:07:44.416Z,15.79
2018-09-13T10:10:17.115Z,15.87
2018-09-13T10:12:49.532Z,16.00
2018-09-13T10:15:27.888Z,16.04
2018-09-13T10:18:05.770Z,16.08
2018-09-13T10:20:44.100Z,16.04
2018-09-13T10:23:21.863Z,16.35
2018-09-13T10:26:00.115Z,16.52
2018-09-13T10:28:37.987Z,16.62
2018-09-13T10:31:15.921Z,16.59
2018-09-13T10:33:54.042Z,16.72
2018-09-13T10:36:32.597Z,16.82
2018-09-13T10:39:14.365Z,16.80
2018-09-13T10:41:52.440Z,16.70
2018-09-13T10:44:30.513Z,16.56
2018-09-13T10:47:09.156Z,16.45
2018-09-13T10:49:47.028Z,16.29
2018-09-13T10:52:24.664Z,16.20
2018-09-13T10:54:58.138Z,16.21
2018-09-13T10:57:35.927Z,16.18
2018-09-13T11:00:07.597Z,16.15
2018-09-13T11:02:40.073Z,16.13
2018-09-13T11:05:12.940Z,16.15
2018-09-13T11:07:45.265Z,16.20
2018-09-13T11:10:17.789Z,16.29
2018-09-13T11:13:09.776Z,16.32
2018-09-13T11:15:54.328Z,16.57
2018-09-13T11:18:27.339Z,16.61
2018-09-13T11:21:00.544Z,16.62
2018-09-13T11:23:34.188Z,16.73
2018-09-13T11:26:07.580Z,16.85
2018-09-13T11:28:40.207Z,16.97
2018-09-13T11:31:12.892Z,16.92
2018-09-13T11:33:46.182Z,17.03
2018-09-13T11:36:23.421Z,17.11
2018-09-13T11:38:55.983Z,17.21
2018-09-13T11:41:29.601Z,17.33
2018-09-13T11:44:02.792Z,17.54
2018-09-13T11:46:37.406Z,17.59
2018-09-13T11:49:10.328Z,17.69
2018-09-13T11:51:42.951Z,17.66
2018-09-13T11:54:16.348Z,17.62
2018-09-13T11:56:50.520Z,17.73
2018-09-13T11:59:23.140Z,17.81
2018-09-13T12:01:55.717Z,17.77
2018-09-13T12:04:28.538Z,17.76
2018-09-13T12:07:01.338Z,17.80
2018-09-13T12:09:33.907Z,17.70
2018-09-13T12:12:06.531Z,17.60
2018-09-13T12:14:39.171Z,17.69
2018-09-13T12:17:11.855Z,17.80
2018-09-13T12:19:44.401Z,17.91
2018-09-13T12:22:17.510Z,18.02
2018-09-13T12:24:49.865Z,18.18
2018-09-13T12:27:22.604Z,18.53
2018-09-13T12:29:56.606Z,18.79
2018-09-13T12:32:29.293Z,19.01
2018-09-13T12:35:01.964Z,19.15
2018-09-13T12:37:35.271Z,19.17
2018-09-13T12:40:09.264Z,19.19
2018-09-13T12:42:42.244Z,19.06
2018-09-13T12:45:16.019Z,18.78
2018-09-13T12:47:48.820Z,18.58
2018-09-13T12:50:22.897Z,18.40
2018-09-13T12:52:55.708Z,18.20
2018-09-13T12:55:36.334Z,18.08
2018-09-13T12:58:09.000Z,18.04
2018-09-13T13:00:42.120Z,18.12
2018-09-13T13:03:16.888Z,18.20
2018-09-13T13:05:50.376Z,18.38
2018-09-13T13:08:24.487Z,18.69
2018-09-13T13:10:57.161Z,18.95
2018-09-13T13:13:30.026Z,19.05
2018-09-13T13:16:05.882Z,19.11
2018-09-13T13:18:40.445Z,19.24
2018-09-13T13:21:13.017Z,19.22
2018-09-13T13:23:48.238Z,19.32
2018-09-13T13:26:20.785Z,19.57
2018-09-13T13:28:53.632Z,19.88
2018-09-13T13:31:27.537Z,20.13
2018-09-13T13:34:00.157Z,20.33
2018-09-13T13:36:33.336Z,20.46
2018-09-13T13:39:10.212Z,20.81
2018-09-13T13:41:43.266Z,21.05
2018-09-13T13:44:16.293Z,21.17
2018-09-13T13:46:50.408Z,21.27
2018-09-13T13:49:23.051Z,21.35
2018-09-13T13:51:55.960Z,21.33
2018-09-13T13:54:28.560Z,21.63
2018-09-13T13:57:01.179Z,21.78
2018-09-13T13:59:34.983Z,21.72
2018-09-13T14:02:08.281Z,22.02
2018-09-13T14:04:41.092Z,22.14
2018-09-13T14:07:14.642Z,21.94
2018-09-13T14:09:47.409Z,21.70
2018-09-13T14:12:20.019Z,21.50
2018-09-13T14:14:53.224Z,21.36
2018-09-13T14:17:25.944Z,21.22
2018-09-13T14:19:58.658Z,21.14
2018-09-13T14:22:37.198Z,21.27
2018-09-13T14:25:12.322Z,21.31
2018-09-13T14:27:46.381Z,21.34
2018-09-13T14:30:19.063Z,21.43
2018-09-13T14:32:51.543Z,21.46
2018-09-13T14:35:24.589Z,21.44
2018-09-13T14:37:57.142Z,21.47
2018-09-13T14:40:30.595Z,21.57
2018-09-13T14:43:03.524Z,21.68
2018-09-13T14:45:36.548Z,21.37
2018-09-13T14:48:09.219Z,21.19
2018-09-13T14:50:41.899Z,21.15
2018-09-13T14:53:14.528Z,21.18
2018-09-13T14:55:49.113Z,21.26
2018-09-13T14:58:21.853Z,21.28
2018-09-13T15:00:54.421Z,21.21
2018-09-13T15:03:27.244Z,21.14
2018-09-13T15:05:59.988Z,21.06
2018-09-13T15:08:32.634Z,20.88
2018-09-13T15:11:05.644Z,20.89
2018-09-13T15:13:38.353Z,20.83
2018-09-13T15:16:11.349Z,20.73
2018-09-13T15:18:44.768Z,20.55
2018-09-13T15:21:17.475Z,20.43
2018-09-13T15:23:50.056Z,20.41
2018-09-13T15:26:22.736Z,20.32
2018-09-13T15:28:55.267Z,20.15
2018-09-13T15:31:28.243Z,20.04
2018-09-13T15:34:00.994Z,19.94
2018-09-13T15:36:33.689Z,19.91
2018-09-13T15:39:12.190Z,19.87
2018-09-13T15:41:44.873Z,19.93
2018-09-13T15:44:17.877Z,19.88
2018-09-13T15:46:52.516Z,19.87
2018-09-13T15:49:25.076Z,19.89
2018-09-13T15:51:57.702Z,19.87
2018-09-13T15:54:31.188Z,19.95
2018-09-13T15:57:03.836Z,20.11
2018-09-13T15:59:36.675Z,20.36
2018-09-13T16:02:11.907Z,20.37
2018-09-13T16:04:44.301Z,20.31
2018-09-13T16:07:17.267Z,20.39
2018-09-13T16:09:50.488Z,20.40
2018-09-13T16:12:23.779Z,20.40
2018-09-13T16:14:56.565Z,20.41
2018-09-13T16:17:32.073Z,20.35
2018-09-13T16:20:04.934Z,20.30
2018-09-13T16:22:37.520Z,20.27
2018-09-13T16:25:12.972Z,20.27
2018-09-13T16:27:45.613Z,20.13
2018-09-13T16:30:18.070Z,20.06
2018-09-13T16:32:51.549Z,20.04
2018-09-13T16:35:25.296Z,19.90
2018-09-13T16:38:03.650Z,19.74
2018-09-13T16:40:45.068Z,19.56
2018-09-13T16:43:37.452Z,19.49
2018-09-13T16:46:18.067Z,19.54
2018-09-13T16:48:50.723Z,19.67
2018-09-13T16:51:23.713Z,19.71
2018-09-13T16:53:57.013Z,19.69
2018-09-13T16:56:29.736Z,19.58
2018-09-13T16:59:02.832Z,19.38
2018-09-13T17:01:35.435Z,19.26
2018-09-13T17:04:09.321Z,19.22
2018-09-13T17:06:42.629Z,19.26
2018-09-13T17:09:15.446Z,19.17
2018-09-13T17:11:48.469Z,19.06
2018-09-13T17:14:22.570Z,18.95
2018-09-13T17:16:55.303Z,18.79
2018-09-13T17:19:46.336Z,18.62
2018-09-13T17:22:20.649Z,18.44
2018-09-13T17:27:27.722Z,18.28
2018-09-13T17:30:03.006Z,18.18
2018-09-13T17:32:35.903Z,18.15
2018-09-13T17:35:09.166Z,18.15
2018-09-13T17:37:41.888Z,18.17
2018-09-13T17:40:14.932Z,18.09
2018-09-13T17:42:48.724Z,18.02
2018-09-13T17:45:22.992Z,17.97
2018-09-13T17:47:55.880Z,18.00
2018-09-13T17:50:28.898Z,17.91
2018-09-13T17:53:01.847Z,17.84
2018-09-13T17:55:35.782Z,17.62
2018-09-13T17:58:11.931Z,17.39
2018-09-13T18:00:45.080Z,17.12
2018-09-13T18:03:19.157Z,16.87
2018-09-13T18:05:52.275Z,16.63
2018-09-13T18:08:24.923Z,16.43
2018-09-13T18:10:58.278Z,16.21
2018-09-13T18:13:30.911Z,15.99
2018-09-13T18:16:03.645Z,15.83
2018-09-13T18:18:36.879Z,15.65
2018-09-13T18:21:09.827Z,15.44
2018-09-13T18:23:43.392Z,15.22
2018-09-13T18:26:16.182Z,15.04
2018-09-13T18:28:48.769Z,14.88
2018-09-13T18:31:23.037Z,14.77
2018-09-13T18:33:56.184Z,14.64
2018-09-13T18:36:29.833Z,14.47
2018-09-13T18:39:04.022Z,14.36
2018-09-13T18:41:40.022Z,14.18
2018-09-13T18:44:12.692Z,14.09
2018-09-13T18:46:47.685Z,13.92
2018-09-13T18:49:24.730Z,13.91
2018-09-13T18:51:59.889Z,13.95
2018-09-13T18:54:34.549Z,13.81
2018-09-13T18:57:08.577Z,13.66
2018-09-13T18:59:43.275Z,13.53
2018-09-13T19:02:20.063Z,13.47
2018-09-13T19:04:56.729Z,13.32
2018-09-13T19:07:30.872Z,13.18
2018-09-13T19:10:04.028Z,13.04
2018-09-13T19:12:38.604Z,12.91
2018-09-13T19:15:21.297Z,12.82
2018-09-13T19:17:56.136Z,12.74
2018-09-13T19:20:29.112Z,12.65
2018-09-13T19:23:01.819Z,12.53
2018-09-13T19:25:35.276Z,12.42
2018-09-13T19:28:12.290Z,12.33
2018-09-13T19:30:45.318Z,12.22
2018-09-13T19:33:17.936Z,12.10
2018-09-13T19:35:52.961Z,12.04
2018-09-13T19:38:27.290Z,12.07
2018-09-13T19:41:00.486Z,12.04
2018-09-13T19:43:36.376Z,11.96
2018-09-13T19:46:11.006Z,11.91
2018-09-13T19:48:48.284Z,11.78
2018-09-13T19:51:20.898Z,11.59
2018-09-13T19:53:57.366Z,11.54
2018-09-13T19:56:30.574Z,11.67
2018-09-13T19:59:05.519Z,11.64
2018-09-13T20:01:39.645Z,11.51
2018-09-13T20:04:14.363Z,11.35
2018-09-13T20:06:47.185Z,11.22
2018-09-13T20:09:21.710Z,11.10
2018-09-13T20:11:55.010Z,11.02
2018-09-13T20:14:29.034Z,11.15
2018-09-13T20:17:02.149Z,11.19
2018-09-13T20:19:34.824Z,11.21
2018-09-13T20:22:11.004Z,11.17
2018-09-13T20:24:47.980Z,11.20
2018-09-13T20:27:22.764Z,11.10
2018-09-13T20:30:00.725Z,11.06
2018-09-13T20:32:37.963Z,11.21
2018-09-13T20:35:13.679Z,11.28
2018-09-13T20:37:48.736Z,11.45
2018-09-13T20:40:26.352Z,11.49
2018-09-13T20:42:58.955Z,11.50
2018-09-13T20:45:32.090Z,11.42
2018-09-13T20:48:07.029Z,11.32
2018-09-13T20:50:39.663Z,11.29
2018-09-13T20:53:15.494Z,11.30
2018-09-13T20:55:48.011Z,11.29
2018-09-13T20:58:21.432Z,11.24
2018-09-13T21:00:55.473Z,11.17
2018-09-13T21:03:30.836Z,11.07
2018-09-13T21:06:05.966Z,11.00
2018-09-13T21:08:39.129Z,10.96
2018-09-13T21:11:13.954Z,11.01
2018-09-13T21:13:48.040Z,10.99
2018-09-13T21:16:22.262Z,10.96
2018-09-13T21:18:55.664Z,11.00
2018-09-13T21:21:29.787Z,10.94
2018-09-13T21:24:03.661Z,10.87
2018-09-13T21:26:36.231Z,10.79
2018-09-13T21:29:08.762Z,10.73
2018-09-13T21:31:41.878Z,10.76
2018-09-13T21:34:14.471Z,10.78
2018-09-13T21:36:47.077Z,10.74
2018-09-13T21:39:21.729Z,10.73
2018-09-13T21:41:55.021Z,10.73
2018-09-13T21:44:28.999Z,10.79
2018-09-13T21:47:04.808Z,10.77
2018-09-13T21:49:43.316Z,10.83
2018-09-13T21:52:16.713Z,10.96
2018-09-13T21:54:52.169Z,10.84
2018-09-13T21:57:25.637Z,10.78
2018-09-13T21:59:58.311Z,10.73
2018-09-13T22:02:33.447Z,10.54
2018-09-13T22:05:07.431Z,10.36
2018-09-13T22:07:40.134Z,10.32
2018-09-13T22:10:13.347Z,10.37
2018-09-13T22:12:46.032Z,10.55
2018-09-13T22:15:19.516Z,10.45
2018-09-13T22:17:52.390Z,10.40
2018-09-13T22:20:25.139Z,10.37
2018-09-13T22:22:57.724Z,10.25
2018-09-13T22:25:31.597Z,10.06
2018-09-13T22:28:04.262Z,10.07
2018-09-13T22:30:37.917Z,10.12
2018-09-13T22:33:18.783Z,10.18
2018-09-13T22:35:52.908Z,10.19
2018-09-13T22:38:25.512Z,10.23
2018-09-13T22:41:00.180Z,10.14
2018-09-13T22:43:40.645Z,9.98
2018-09-13T22:46:14.028Z,9.90
2018-09-13T22:48:47.679Z,9.90
2018-09-13T22:51:21.640Z,9.96
2018-09-13T22:53:55.007Z,9.98
2018-09-13T22:56:29.117Z,10.05
2018-09-13T22:59:02.556Z,9.89
2018-09-13T23:01:35.942Z,9.74
2018-09-13T23:04:16.430Z,9.81
2018-09-13T23:06:54.661Z,9.91
2018-09-13T23:13:53.227Z,9.82
2018-09-13T23:16:26.232Z,9.81
2018-09-13T23:19:01.028Z,9.75
2018-09-13T23:21:33.815Z,9.51
2018-09-13T23:24:06.389Z,9.31
2018-09-13T23:26:40.352Z,9.15
2018-09-13T23:29:13.071Z,9.04
2018-09-13T23:31:45.820Z,8.93
2018-09-13T23:34:18.768Z,8.99
2018-09-13T23:36:51.313Z,9.08
2018-09-13T23:39:24.813Z,9.11
2018-09-13T23:41:57.671Z,9.20
2018-09-13T23:44:31.093Z,9.24
2018-09-13T23:47:03.707Z,9.22
2018-09-13T23:49:36.724Z,9.26
2018-09-13T23:52:11.147Z,9.32
2018-09-13T23:54:44.500Z,9.36
2018-09-13T23:57:20.173Z,9.45
2018-09-13T23:59:53.480Z,9.38
